Time;durP1;ratioP1;P1;durP2;ratioP2;P2;SDS_P1;SDS_P2;PMS_P1;PMS_P2;Temp;Humidity;BMP_temperature;BMP_pressure;BME280_temperature;BME280_humidity;BME280_pressure;Samples;Min_cycle;Max_cycle;Signal;HPM_P1;HPM_P2
2022/07/10 04:02:40;;;;;;;1.73;1.40;;;13.70;99.90;;;;;;4946318;28;20278;-67
2022/07/10 04:05:08;;;;;;;2.23;1.63;;;13.70;99.90;;;;;;4953735;28;20456;-66
2022/07/10 04:07:35;;;;;;;3.17;1.20;;;13.70;99.90;;;;;;4951307;28;20456;-66
2022/07/10 04:10:01;;;;;;;7.57;2.27;;;13.70;99.90;;;;;;4936700;28;20468;-67
2022/07/10 04:12:28;;;;;;;1.53;1.10;;;13.80;99.90;;;;;;4935839;29;20481;-66
2022/07/10 04:14:56;;;;;;;3.33;1.60;;;13.80;99.90;;;;;;5000592;23;20495;-70
2022/07/10 04:17:22;;;;;;;2.37;1.40;;;13.80;99.90;;;;;;4992655;28;20558;-70
2022/07/10 04:19:50;;;;;;;2.63;1.10;;;13.80;99.90;;;;;;4977651;28;20456;-70
2022/07/10 04:22:17;;;;;;;1.47;1.37;;;13.90;99.90;;;;;;4978546;28;20475;-71
2022/07/10 04:24:44;;;;;;;3.80;1.40;;;13.90;99.90;;;;;;4964899;28;20490;-70
2022/07/10 04:27:11;;;;;;;1.40;1.33;;;13.90;99.90;;;;;;4970596;28;21027;-70
2022/07/10 04:29:37;;;;;;;7.07;1.23;;;14.00;99.90;;;;;;4966441;28;20472;-70
2022/07/10 04:32:05;;;;;;;4.80;1.33;;;14.00;99.90;;;;;;4967038;28;20471;-70
2022/07/10 04:34:31;;;;;;;3.00;1.60;;;14.00;99.90;;;;;;4972097;28;20483;-69
2022/07/10 04:36:59;;;;;;;6.27;1.73;;;14.00;99.90;;;;;;4972227;28;20459;-71
2022/07/10 04:39:26;;;;;;;3.03;1.40;;;14.00;99.90;;;;;;4970399;28;20468;-71
2022/07/10 04:41:53;;;;;;;1.77;1.67;;;14.10;99.90;;;;;;4961354;28;20984;-70
2022/07/10 04:44:20;;;;;;;4.63;1.57;;;14.10;99.90;;;;;;4954727;28;20973;-69
2022/07/10 04:46:47;;;;;;;1.37;1.13;;;14.20;99.90;;;;;;4964446;28;20461;-70
2022/07/10 04:49:14;;;;;;;2.00;1.30;;;14.20;99.90;;;;;;4952726;29;20471;-70
2022/07/10 04:51:41;;;;;;;1.80;1.27;;;14.30;99.90;;;;;;4960959;28;20832;-70
2022/07/10 04:54:09;;;;;;;1.43;1.23;;;14.30;99.90;;;;;;4965959;28;20485;-70
2022/07/10 04:56:35;;;;;;;4.73;1.97;;;14.40;99.90;;;;;;4958044;28;20468;-71
2022/07/10 04:59:02;;;;;;;4.00;1.60;;;14.50;99.90;;;;;;4972094;28;20463;-70
2022/07/10 05:01:29;;;;;;;3.63;1.47;;;14.50;99.90;;;;;;4970924;28;20467;-70
2022/07/10 05:03:56;;;;;;;2.63;1.47;;;14.50;99.90;;;;;;4971688;28;20868;-71
2022/07/10 05:06:23;;;;;;;2.73;1.63;;;14.60;99.90;;;;;;4971620;28;20551;-70
2022/07/10 05:08:50;;;;;;;3.30;1.40;;;14.50;99.90;;;;;;4972138;28;20472;-70
2022/07/10 05:11:18;;;;;;;4.60;1.90;;;14.60;99.90;;;;;;4969472;28;20459;-71
2022/07/10 05:13:46;;;;;;;3.50;1.43;;;14.60;99.90;;;;;;4972048;28;20518;-71
2022/07/10 05:16:13;;;;;;;6.50;3.00;;;14.60;99.90;;;;;;4971540;28;20483;-70
2022/07/10 05:18:40;;;;;;;3.97;1.97;;;14.60;99.90;;;;;;4971746;28;20464;-70
2022/07/10 05:21:07;;;;;;;3.90;2.10;;;14.70;99.90;;;;;;4953718;28;20472;-70
2022/07/10 05:23:34;;;;;;;2.93;1.90;;;14.70;99.90;;;;;;4970993;28;20861;-70
2022/07/10 05:26:01;;;;;;;3.70;1.87;;;14.80;99.90;;;;;;4963868;28;20485;-70
2022/07/10 05:28:29;;;;;;;2.80;2.33;;;14.90;99.90;;;;;;4960230;28;20464;-70
2022/07/10 05:30:56;;;;;;;5.83;1.90;;;15.00;99.90;;;;;;4961879;28;20461;-70
2022/07/10 05:33:22;;;;;;;2.97;1.70;;;15.10;99.90;;;;;;4952241;28;20512;-70
2022/07/10 05:35:49;;;;;;;7.27;2.07;;;15.10;99.90;;;;;;4966209;28;20460;-70
2022/07/10 05:38:17;;;;;;;3.53;2.20;;;15.20;99.90;;;;;;4958673;28;20460;-70
2022/07/10 05:40:44;;;;;;;5.07;2.10;;;15.30;99.90;;;;;;4952288;28;20472;-70
2022/07/10 05:43:11;;;;;;;5.13;2.10;;;15.40;99.90;;;;;;4965540;28;20490;-70
2022/07/10 05:45:39;;;;;;;2.90;1.80;;;15.50;99.90;;;;;;4970883;28;20463;-70
2022/07/10 05:48:06;;;;;;;3.17;1.83;;;15.60;99.90;;;;;;4971666;28;20468;-70
2022/07/10 05:50:33;;;;;;;4.10;2.20;;;15.70;99.90;;;;;;4962524;28;20468;-70
2022/07/10 05:53:00;;;;;;;4.80;2.30;;;15.70;99.90;;;;;;4967308;28;20471;-70
2022/07/10 05:55:27;;;;;;;3.47;1.90;;;15.80;99.90;;;;;;4975094;28;20463;-70
2022/07/10 05:57:54;;;;;;;7.50;2.77;;;16.00;99.90;;;;;;4975622;28;20474;-70
2022/07/10 06:00:21;;;;;;;4.33;1.90;;;16.10;99.90;;;;;;4970073;28;20982;-70
2022/07/10 06:02:49;;;;;;;9.73;2.50;;;16.30;99.90;;;;;;4967367;28;20459;-70
2022/07/10 06:05:16;;;;;;;3.50;2.30;;;16.70;99.90;;;;;;4963747;28;20480;-69
2022/07/10 06:07:42;;;;;;;6.17;2.27;;;16.90;99.90;;;;;;4956333;29;20566;-70
2022/07/10 06:10:09;;;;;;;3.77;1.67;;;17.10;99.90;;;;;;4964672;28;20460;-70
2022/07/10 06:12:37;;;;;;;5.37;1.87;;;17.60;99.90;;;;;;4975202;28;20828;-70
2022/07/10 06:15:04;;;;;;;2.60;1.90;;;18.50;99.90;;;;;;4973037;28;20493;-70
2022/07/10 06:17:30;;;;;;;3.30;2.10;;;19.30;99.90;;;;;;4975542;28;20474;-70
2022/07/10 06:19:58;;;;;;;2.63;2.17;;;19.40;99.90;;;;;;4966769;28;20788;-70
2022/07/10 06:22:31;;;;;;;5.63;2.43;;;19.70;99.90;;;;;;4963736;28;20471;-70
2022/07/10 06:24:59;;;;;;;3.23;2.03;;;19.40;99.90;;;;;;4956583;28;20496;-69
2022/07/10 06:27:26;;;;;;;6.17;2.07;;;18.90;99.90;;;;;;4970442;28;20495;-70
2022/07/10 06:29:53;;;;;;;11.63;2.63;;;18.80;99.90;;;;;;4955732;28;20468;-69
2022/07/10 06:32:19;;;;;;;4.30;2.30;;;19.10;99.90;;;;;;4968534;28;20968;-70
2022/07/10 06:34:46;;;;;;;8.17;2.77;;;19.30;99.90;;;;;;4966538;28;20816;-69
2022/07/10 06:37:14;;;;;;;4.47;2.00;;;19.40;99.90;;;;;;4974438;28;20470;-69
2022/07/10 06:39:41;;;;;;;7.00;2.50;;;19.30;99.90;;;;;;4974343;28;20466;-69
2022/07/10 06:42:08;;;;;;;10.10;2.53;;;19.20;99.90;;;;;;4974350;28;20490;-69
2022/07/10 06:44:35;;;;;;;2.10;1.43;;;19.30;99.90;;;;;;4973823;28;20487;-69
2022/07/10 06:49:48;;;;;;;3.43;1.93;;;18.90;99.90;;;;;;4974290;28;20966;-69
2022/07/10 06:52:16;;;;;;;7.63;3.53;;;19.10;99.90;;;;;;4964789;28;20620;-68
2022/07/10 06:54:43;;;;;;;4.97;2.20;;;18.90;99.90;;;;;;4956124;28;20924;-68
2022/07/10 06:57:10;;;;;;;4.33;2.57;;;18.80;99.90;;;;;;4955097;28;20798;-69
2022/07/10 06:59:37;;;;;;;5.70;2.17;;;18.80;99.90;;;;;;4967054;28;20490;-68
2022/07/10 07:02:05;;;;;;;6.30;2.53;;;18.60;99.90;;;;;;4974376;28;20467;-70
2022/07/10 07:04:31;;;;;;;5.97;3.03;;;18.60;99.90;;;;;;4971165;28;20495;-69
2022/07/10 07:06:58;;;;;;;9.10;2.27;;;18.30;99.90;;;;;;4966296;28;20463;-69
2022/07/10 07:09:26;;;;;;;5.60;3.00;;;17.90;99.90;;;;;;4965932;28;20980;-69
2022/07/10 07:11:53;;;;;;;10.50;2.63;;;17.90;99.90;;;;;;4955063;29;20815;-69
2022/07/10 07:14:19;;;;;;;5.73;2.87;;;17.70;99.90;;;;;;4957350;28;20488;-69
2022/07/10 07:16:57;;;;;;;7.67;3.00;;;17.70;99.90;;;;;;4954718;29;20469;-69
2022/07/10 07:19:30;;;;;;;9.53;2.17;;;17.80;99.90;;;;;;4958052;28;20466;-69
2022/07/10 07:24:54;;;;;;;7.43;2.17;;;17.90;99.90;;;;;;4926813;29;20625;-69
2022/07/10 07:27:21;;;;;;;2.63;1.60;;;18.90;99.90;;;;;;4949639;28;20475;-69
2022/07/10 07:29:47;;;;;;;8.90;2.27;;;19.90;99.90;;;;;;4965418;28;20467;-69
2022/07/10 07:32:14;;;;;;;4.33;1.87;;;20.10;99.90;;;;;;4968845;28;20567;-69
2022/07/10 07:34:41;;;;;;;3.10;1.90;;;20.60;99.90;;;;;;4972667;28;20483;-68
2022/07/10 07:37:07;;;;;;;4.53;2.00;;;21.00;99.90;;;;;;4973275;28;20467;-69
2022/07/10 07:39:34;;;;;;;3.60;1.70;;;21.10;99.90;;;;;;4963254;28;20499;-69
2022/07/10 07:42:02;;;;;;;4.00;1.93;;;20.60;99.90;;;;;;4972836;28;20820;-68
2022/07/10 07:44:29;;;;;;;4.43;1.73;;;20.20;99.90;;;;;;4971612;28;20502;-68
2022/07/10 07:46:56;;;;;;;2.60;2.40;;;19.90;99.90;;;;;;4970506;28;20489;-69
2022/07/10 07:49:22;;;;;;;2.77;1.93;;;20.00;99.90;;;;;;4970556;28;20784;-68
2022/07/10 07:51:50;;;;;;;3.23;1.70;;;19.50;99.90;;;;;;4971454;28;20464;-68
2022/07/10 07:54:16;;;;;;;8.10;2.97;;;19.10;99.90;;;;;;4962854;28;20510;-68
2022/07/10 07:56:43;;;;;;;4.00;1.90;;;18.70;99.90;;;;;;4960571;28;20788;-68
2022/07/10 07:59:12;;;;;;;5.20;1.70;;;18.50;99.90;;;;;;4972309;28;20475;-69
2022/07/10 08:01:39;;;;;;;3.77;1.60;;;18.60;99.90;;;;;;4954339;28;20472;-68
2022/07/10 08:04:06;;;;;;;5.00;2.23;;;18.30;99.90;;;;;;4953923;28;20875;-69
2022/07/10 08:06:32;;;;;;;3.60;2.10;;;18.70;99.90;;;;;;4959264;28;20472;-68
2022/07/10 08:08:59;;;;;;;3.30;1.97;;;19.10;99.90;;;;;;4964115;28;20895;-70
2022/07/10 08:11:26;;;;;;;5.60;2.10;;;18.80;99.90;;;;;;4959428;28;20464;-70
2022/07/10 08:13:52;;;;;;;3.93;2.10;;;18.60;99.90;;;;;;4953031;28;20492;-70
2022/07/10 08:16:20;;;;;;;7.70;2.20;;;18.60;99.90;;;;;;4964645;28;20459;-68
2022/07/10 08:18:47;;;;;;;7.40;2.07;;;18.80;99.90;;;;;;4963219;28;20469;-71
2022/07/10 08:21:14;;;;;;;4.63;2.57;;;19.00;99.90;;;;;;4961831;28;20519;-70
2022/07/10 08:23:40;;;;;;;6.20;2.70;;;19.20;99.90;;;;;;4972577;28;20483;-68
2022/07/10 08:26:07;;;;;;;5.20;2.30;;;19.50;99.90;;;;;;4972272;28;20475;-68
2022/07/10 08:28:34;;;;;;;4.07;1.83;;;19.70;99.90;;;;;;4972355;28;20491;-69
2022/07/10 08:31:01;;;;;;;4.20;2.03;;;19.80;99.90;;;;;;4965583;28;20888;-68
2022/07/10 08:33:29;;;;;;;3.77;1.40;;;20.10;99.90;;;;;;4953211;28;20484;-68
2022/07/10 08:35:58;;;;;;;2.50;2.00;;;20.50;99.90;;;;;;4955398;28;20961;-68
2022/07/10 08:38:25;;;;;;;9.87;2.10;;;21.00;99.90;;;;;;4972551;28;20497;-68
2022/07/10 08:40:56;;;;;;;4.77;1.80;;;21.00;99.90;;;;;;4957680;28;20585;-68
2022/07/10 08:43:24;;;;;;;2.63;1.50;;;20.70;99.90;;;;;;4953405;28;20489;-68
2022/07/10 08:45:53;;;;;;;3.10;1.50;;;20.10;99.90;;;;;;4953909;28;20826;-69
2022/07/10 08:48:22;;;;;;;6.00;1.60;;;19.50;99.90;;;;;;4972181;28;20841;-69
2022/07/10 08:50:53;;;;;;;4.60;1.70;;;19.80;99.90;;;;;;4957718;28;20469;-68
2022/07/10 08:53:29;;;;;;;3.70;2.00;;;20.30;99.90;;;;;;4953053;28;20505;-69
2022/07/10 08:55:56;;;;;;;4.30;1.70;;;20.80;99.90;;;;;;4966623;28;21119;-69
2022/07/10 08:58:24;;;;;;;1.87;1.67;;;20.60;99.90;;;;;;4952940;29;20479;-70
2022/07/10 09:00:51;;;;;;;2.60;1.43;;;20.30;99.90;;;;;;4952795;28;20460;-68
2022/07/10 09:03:17;;;;;;;4.57;1.87;;;20.10;99.90;;;;;;4971114;28;20475;-70
2022/07/10 09:05:44;;;;;;;5.70;1.70;;;19.60;99.90;;;;;;4971740;28;20488;-69
2022/07/10 09:08:24;;;;;;;9.00;2.47;;;19.40;99.90;;;;;;4963262;28;20961;-68
2022/07/10 09:10:51;;;;;;;4.10;1.70;;;19.70;99.90;;;;;;4962929;28;20518;-68
2022/07/10 09:13:18;;;;;;;4.83;1.27;;;20.00;99.90;;;;;;4971367;28;20813;-69
2022/07/10 09:15:49;;;;;;;3.33;1.60;;;20.20;99.90;;;;;;4952921;28;20484;-68
2022/07/10 09:18:24;;;;;;;5.03;1.40;;;20.00;99.90;;;;;;4969308;28;20816;-68
2022/07/10 09:20:51;;;;;;;4.47;1.67;;;19.90;99.90;;;;;;4971114;28;20471;-68
2022/07/10 09:23:20;;;;;;;3.37;1.70;;;19.80;99.90;;;;;;4971538;28;20471;-69
2022/07/10 09:25:49;;;;;;;1.70;1.60;;;19.70;99.90;;;;;;4964810;28;20571;-69
2022/07/10 09:28:18;;;;;;;5.27;1.50;;;19.90;99.90;;;;;;4968594;28;20488;-70
2022/07/10 09:30:46;;;;;;;3.40;1.20;;;19.70;99.90;;;;;;4958495;28;21001;-69
2022/07/10 09:33:18;;;;;;;4.60;2.23;;;19.50;99.90;;;;;;4953064;28;20823;-69
2022/07/10 09:36:06;;;;;;;4.50;1.90;;;19.60;99.90;;;;;;4971881;28;20460;-68
2022/07/10 09:38:53;;;;;;;2.97;1.77;;;19.50;99.90;;;;;;4971529;28;21008;-68
2022/07/10 09:41:23;;;;;;;4.17;1.27;;;19.50;99.90;;;;;;4970931;28;20588;-68
2022/07/10 09:43:52;;;;;;;3.20;1.50;;;19.50;99.90;;;;;;4971350;28;20498;-69
2022/07/10 09:46:21;;;;;;;3.90;2.13;;;19.60;99.90;;;;;;4971063;28;20494;-69
2022/07/10 09:48:47;;;;;;;2.47;1.43;;;19.70;99.90;;;;;;4957888;28;20989;-69
2022/07/10 09:51:14;;;;;;;4.77;1.70;;;19.70;99.90;;;;;;4971067;28;20984;-69
2022/07/10 09:53:43;;;;;;;5.33;1.67;;;19.50;99.90;;;;;;4970234;28;20476;-68
2022/07/10 09:56:14;;;;;;;3.20;1.50;;;19.40;99.90;;;;;;4971390;28;20462;-68
2022/07/10 09:58:43;;;;;;;8.40;3.40;;;19.50;99.90;;;;;;4954488;28;20979;-69
2022/07/10 10:01:10;;;;;;;3.73;1.27;;;19.70;99.90;;;;;;4952710;28;20471;-70
2022/07/10 10:03:39;;;;;;;2.57;1.60;;;19.90;99.90;;;;;;4962989;28;20499;-70
2022/07/10 10:06:12;;;;;;;5.33;2.20;;;20.00;99.90;;;;;;4963476;28;20485;-71
2022/07/10 10:08:50;;;;;;;2.93;1.30;;;20.10;99.90;;;;;;4958823;28;20814;-71
2022/07/10 10:11:20;;;;;;;2.17;1.80;;;20.10;99.90;;;;;;4960187;28;20475;-71
2022/07/10 10:13:50;;;;;;;1.80;1.60;;;19.90;99.90;;;;;;4958977;28;20524;-71
2022/07/10 10:16:19;;;;;;;1.73;1.00;;;19.90;99.90;;;;;;4969895;28;20455;-71
2022/07/10 10:21:31;;;;;;;3.53;1.47;;;19.70;99.90;;;;;;4957234;28;20455;-71
2022/07/10 10:23:59;;;;;;;4.90;1.20;;;19.60;99.90;;;;;;4962881;28;20500;-71
2022/07/10 10:26:25;;;;;;;1.07;1.03;;;19.80;99.90;;;;;;4962858;28;20495;-73
2022/07/10 10:28:56;;;;;;;4.83;1.17;;;20.00;99.80;;;;;;4966656;28;20475;-72
2022/07/10 10:31:25;;;;;;;2.70;1.10;;;20.00;99.10;;;;;;4952141;28;20491;-72
2022/07/10 10:33:55;;;;;;;1.63;1.13;;;20.00;99.30;;;;;;4952400;28;20492;-72
2022/07/10 10:36:49;;;;;;;1.90;1.00;;;20.00;99.60;;;;;;4958305;28;20467;-71
2022/07/10 10:39:18;;;;;;;3.87;1.23;;;20.20;99.90;;;;;;4962025;28;20463;-72
2022/07/10 10:41:49;;;;;;;1.80;1.10;;;20.30;99.90;;;;;;4962991;28;20512;-72
2022/07/10 10:44:32;;;;;;;1.70;1.30;;;20.30;99.70;;;;;;4966290;28;20487;-72
2022/07/10 10:47:09;;;;;;;1.90;1.23;;;20.10;98.30;;;;;;4974546;28;20474;-70
2022/07/10 10:49:53;;;;;;;1.27;1.27;;;20.00;98.60;;;;;;4973655;28;20474;-71
2022/07/10 10:52:21;;;;;;;2.30;2.00;;;20.10;98.20;;;;;;4974163;28;20474;-71
2022/07/10 10:55:11;;;;;;;1.30;1.00;;;20.00;98.40;;;;;;4973996;28;20571;-70
2022/07/10 10:57:44;;;;;;;1.10;1.10;;;20.00;99.50;;;;;;4969848;28;20521;-72
2022/07/10 11:00:14;;;;;;;2.47;1.50;;;19.90;99.30;;;;;;4973677;28;20542;-71
2022/07/10 11:02:42;;;;;;;2.17;1.10;;;20.10;99.00;;;;;;4974374;28;20578;-70
2022/07/10 11:05:41;;;;;;;3.37;1.13;;;20.10;99.20;;;;;;4973729;28;20575;-72
2022/07/10 11:08:08;;;;;;;2.93;1.17;;;20.20;98.80;;;;;;4955295;28;20835;-71
2022/07/10 11:10:36;;;;;;;3.07;1.17;;;20.20;98.40;;;;;;4963088;28;20489;-73
2022/07/10 11:13:05;;;;;;;1.93;1.50;;;20.00;98.00;;;;;;4962513;28;20475;-75
2022/07/10 11:15:34;;;;;;;2.13;1.37;;;20.10;99.00;;;;;;4973345;28;20479;-74
2022/07/10 11:18:04;;;;;;;2.13;1.10;;;20.00;98.50;;;;;;4977506;28;20464;-74
2022/07/10 11:20:34;;;;;;;1.30;1.20;;;19.90;99.30;;;;;;4958139;28;20457;-73
2022/07/10 11:23:35;;;;;;;2.77;1.37;;;19.80;99.00;;;;;;4957874;29;20512;-73
2022/07/10 11:26:08;;;;;;;1.57;1.10;;;19.90;99.30;;;;;;4956837;28;20492;-73
2022/07/10 11:28:48;;;;;;;4.77;1.53;;;20.00;99.20;;;;;;4956369;28;20469;-72
2022/07/10 11:31:16;;;;;;;3.10;1.60;;;20.10;98.70;;;;;;4974083;28;20542;-73
2022/07/10 11:33:44;;;;;;;4.07;1.50;;;19.90;99.00;;;;;;4973719;28;20483;-72
2022/07/10 11:36:13;;;;;;;1.80;1.40;;;19.90;99.70;;;;;;4968875;28;20475;-72
2022/07/10 11:38:40;;;;;;;4.87;1.40;;;19.90;99.90;;;;;;4966460;28;20464;-72
2022/07/10 11:41:13;;;;;;;3.60;1.10;;;20.00;99.90;;;;;;4954657;28;20465;-72
2022/07/10 11:43:47;;;;;;;1.67;1.13;;;20.00;98.90;;;;;;4961386;28;20488;-71
2022/07/10 11:46:14;;;;;;;1.13;0.93;;;20.20;99.20;;;;;;4972991;28;20519;-71
2022/07/10 11:48:42;;;;;;;1.50;1.30;;;20.30;99.50;;;;;;4960503;28;20464;-71
2022/07/10 11:51:18;;;;;;;3.03;1.10;;;20.40;99.90;;;;;;4972457;28;20909;-71
2022/07/10 11:53:54;;;;;;;7.87;1.93;;;20.40;99.90;;;;;;4967075;28;20872;-71
2022/07/10 11:56:20;;;;;;;1.93;1.60;;;20.30;99.90;;;;;;4957207;28;20484;-71
2022/07/10 11:58:55;;;;;;;1.97;1.40;;;20.50;99.90;;;;;;4961824;28;20475;-71
2022/07/10 12:01:21;;;;;;;4.43;1.20;;;20.50;99.90;;;;;;4973251;28;20467;-71
2022/07/10 12:03:59;;;;;;;2.00;1.40;;;20.50;99.90;;;;;;4972402;28;20618;-70
2022/07/10 12:06:27;;;;;;;2.80;1.47;;;20.70;99.90;;;;;;4965909;28;20476;-71
2022/07/10 12:08:54;;;;;;;1.90;1.80;;;20.80;99.90;;;;;;4964651;28;20476;-71
2022/07/10 12:11:21;;;;;;;4.17;1.33;;;21.10;99.90;;;;;;4964199;28;20460;-71
2022/07/10 12:13:50;;;;;;;2.30;1.63;;;21.10;99.90;;;;;;4961514;28;20501;-71
2022/07/10 12:16:17;;;;;;;5.90;1.40;;;21.00;98.60;;;;;;4964252;28;20470;-72
2022/07/10 12:18:45;;;;;;;1.53;1.10;;;20.80;99.20;;;;;;4961557;28;20467;-72
2022/07/10 12:21:14;;;;;;;4.73;1.60;;;20.90;99.90;;;;;;4967716;28;20468;-71
2022/07/10 12:23:42;;;;;;;4.07;1.20;;;20.90;99.90;;;;;;4972894;28;21072;-71
2022/07/10 12:26:13;;;;;;;2.20;1.40;;;20.90;99.90;;;;;;4972420;28;20515;-71
2022/07/10 12:28:54;;;;;;;4.43;1.73;;;20.70;99.10;;;;;;4972998;28;20468;-72
2022/07/10 12:31:25;;;;;;;4.10;1.03;;;21.00;99.90;;;;;;4962207;28;20474;-70
2022/07/10 12:33:57;;;;;;;2.87;0.80;;;21.20;98.00;;;;;;4965957;28;20586;-71
2022/07/10 12:36:25;;;;;;;1.80;1.10;;;20.90;95.40;;;;;;4967428;28;20461;-71
2022/07/10 12:38:57;;;;;;;1.90;1.10;;;20.70;96.20;;;;;;4967795;28;20472;-71
2022/07/10 12:41:25;;;;;;;1.47;1.00;;;20.70;97.30;;;;;;4966932;28;20533;-70
2022/07/10 12:43:52;;;;;;;2.63;0.87;;;20.80;97.90;;;;;;4967285;28;20503;-70
2022/07/10 12:46:20;;;;;;;4.20;1.10;;;20.90;97.30;;;;;;4963797;28;20484;-71
2022/07/10 12:49:03;;;;;;;1.80;1.10;;;20.90;97.10;;;;;;4965173;28;20469;-71
2022/07/10 12:51:33;;;;;;;2.13;1.30;;;20.80;95.90;;;;;;4959071;28;21280;-71
2022/07/10 12:53:59;;;;;;;2.90;0.90;;;20.80;96.60;;;;;;4970700;28;20484;-71
2022/07/10 12:56:31;;;;;;;3.17;1.00;;;20.90;97.00;;;;;;4971132;28;20606;-72
2022/07/10 12:58:59;;;;;;;3.97;1.03;;;20.90;97.10;;;;;;4964263;28;20484;-73
2022/07/10 13:01:27;;;;;;;3.90;1.13;;;21.10;97.70;;;;;;4968626;28;20495;-73
2022/07/10 13:04:01;;;;;;;2.23;1.30;;;21.10;96.90;;;;;;4963179;28;20503;-72
2022/07/10 13:06:35;;;;;;;2.10;1.00;;;21.10;96.90;;;;;;4963061;28;20488;-72
2022/07/10 13:09:02;;;;;;;4.20;1.33;;;21.10;97.00;;;;;;4962488;28;20464;-72
2022/07/10 13:11:29;;;;;;;1.40;1.30;;;21.00;96.70;;;;;;4960232;28;20812;-72
2022/07/10 13:13:55;;;;;;;1.83;1.20;;;21.00;96.50;;;;;;4959891;28;20492;-72
2022/07/10 13:16:23;;;;;;;5.93;1.37;;;20.90;97.00;;;;;;4966034;28;20961;-72
2022/07/10 13:18:49;;;;;;;1.23;1.20;;;20.70;97.80;;;;;;4972281;28;20471;-72
2022/07/10 13:21:16;;;;;;;2.27;1.10;;;20.80;98.30;;;;;;4961530;28;20460;-72
2022/07/10 13:23:44;;;;;;;1.70;1.23;;;21.20;97.90;;;;;;4970390;28;20568;-73
2022/07/10 13:26:11;;;;;;;2.13;1.90;;;21.40;97.50;;;;;;4970231;28;20488;-73
2022/07/10 13:28:37;;;;;;;2.87;1.20;;;21.40;96.60;;;;;;4970821;28;20999;-73
2022/07/10 13:31:04;;;;;;;5.20;1.50;;;21.20;96.00;;;;;;4960620;28;20464;-74
2022/07/10 13:33:31;;;;;;;2.73;1.33;;;21.20;96.60;;;;;;4961647;28;21004;-73
2022/07/10 13:36:01;;;;;;;1.90;1.40;;;21.10;96.70;;;;;;4968114;28;20787;-71
2022/07/10 13:38:28;;;;;;;2.10;1.07;;;21.00;96.30;;;;;;4966419;28;20547;-71
2022/07/10 13:40:56;;;;;;;1.60;0.90;;;21.00;96.20;;;;;;4971803;28;20464;-70
2022/07/10 13:43:26;;;;;;;4.47;1.60;;;21.00;95.80;;;;;;4963066;28;20480;-72
2022/07/10 13:45:53;;;;;;;3.53;1.20;;;20.90;96.00;;;;;;4960135;28;20903;-71
2022/07/10 13:48:20;;;;;;;2.20;1.47;;;20.80;96.20;;;;;;4965742;28;20830;-71
2022/07/10 13:50:47;;;;;;;2.13;1.07;;;20.80;96.30;;;;;;4971268;28;20466;-71
2022/07/10 13:53:14;;;;;;;2.57;1.40;;;20.70;95.50;;;;;;4970619;28;20518;-72
2022/07/10 13:55:41;;;;;;;1.03;1.03;;;20.80;96.60;;;;;;4968667;28;20468;-73
2022/07/10 13:58:09;;;;;;;1.87;1.73;;;20.60;96.20;;;;;;4956630;28;20471;-70
2022/07/10 14:00:37;;;;;;;2.53;1.13;;;20.50;96.30;;;;;;4954905;28;20469;-71
2022/07/10 14:03:04;;;;;;;2.37;1.00;;;20.40;96.50;;;;;;4972162;28;20555;-71
2022/07/10 14:05:32;;;;;;;1.77;1.67;;;20.50;96.30;;;;;;4970080;28;20797;-72
2022/07/10 14:07:59;;;;;;;1.27;1.17;;;20.50;96.50;;;;;;4960220;28;20486;-71
2022/07/10 14:10:26;;;;;;;2.07;1.37;;;20.50;97.00;;;;;;4957124;28;20472;-72
2022/07/10 14:12:54;;;;;;;0.90;0.90;;;20.50;97.20;;;;;;4973559;28;20474;-71
2022/07/10 14:15:22;;;;;;;2.63;0.70;;;20.30;97.50;;;;;;4972327;28;20562;-72
2022/07/10 14:17:50;;;;;;;2.87;1.60;;;20.10;97.90;;;;;;4966553;28;20488;-71
2022/07/10 14:20:17;;;;;;;3.37;1.53;;;20.00;98.30;;;;;;4965937;28;20474;-72
2022/07/10 14:22:45;;;;;;;1.30;1.20;;;20.00;99.20;;;;;;4974437;28;20468;-71
2022/07/10 14:25:13;;;;;;;3.00;1.63;;;20.10;99.30;;;;;;4975174;28;20519;-70
2022/07/10 14:27:40;;;;;;;2.80;1.50;;;20.10;99.00;;;;;;4973646;28;20495;-70
2022/07/10 14:30:08;;;;;;;1.50;1.40;;;20.20;99.60;;;;;;4962218;28;20820;-71
2022/07/10 14:32:36;;;;;;;1.60;1.50;;;20.10;99.90;;;;;;4956941;28;20976;-70
2022/07/10 14:35:04;;;;;;;1.90;1.30;;;20.10;99.70;;;;;;4974578;28;20569;-71
2022/07/10 14:37:30;;;;;;;6.87;1.77;;;20.10;99.90;;;;;;4974486;28;20460;-70
2022/07/10 14:39:57;;;;;;;2.33;1.40;;;20.20;99.90;;;;;;4968296;28;20473;-70
2022/07/10 14:42:24;;;;;;;6.27;2.10;;;20.30;99.90;;;;;;4959571;28;20460;-71
2022/07/10 14:44:50;;;;;;;2.03;1.20;;;20.20;99.80;;;;;;4968795;28;20487;-72
2022/07/10 14:47:17;;;;;;;2.57;1.33;;;20.10;99.60;;;;;;4958299;28;20567;-71
2022/07/10 14:49:46;;;;;;;2.10;1.60;;;20.10;99.80;;;;;;4959281;28;20482;-71
2022/07/10 14:52:13;;;;;;;1.80;1.70;;;20.00;99.90;;;;;;4958125;28;20476;-70
2022/07/10 14:54:40;;;;;;;2.83;1.80;;;19.90;99.90;;;;;;4957505;28;20524;-71
2022/07/10 14:57:07;;;;;;;5.33;1.87;;;20.00;99.90;;;;;;4970134;28;20455;-71
2022/07/10 14:59:34;;;;;;;3.73;1.47;;;20.00;99.90;;;;;;4971250;28;20468;-71
2022/07/10 15:02:01;;;;;;;2.80;1.50;;;20.00;99.90;;;;;;4962756;28;20476;-70
2022/07/10 15:04:27;;;;;;;1.60;1.50;;;20.00;99.90;;;;;;4970821;28;20487;-70
2022/07/10 15:06:55;;;;;;;3.47;1.20;;;19.90;99.90;;;;;;4961946;28;20488;-72
2022/07/10 15:09:22;;;;;;;4.10;1.43;;;19.80;99.90;;;;;;4962843;28;20484;-70
2022/07/10 15:11:48;;;;;;;5.10;2.17;;;19.70;99.90;;;;;;4974183;28;20463;-71
2022/07/10 15:14:15;;;;;;;3.37;1.17;;;19.60;99.90;;;;;;4963541;28;20508;-72
2022/07/10 15:16:42;;;;;;;4.17;1.20;;;19.60;99.90;;;;;;4971207;28;20476;-71
2022/07/10 15:19:10;;;;;;;2.03;1.63;;;19.50;99.90;;;;;;4971181;28;20468;-71
2022/07/10 15:21:37;;;;;;;2.03;1.83;;;19.50;99.90;;;;;;4973771;28;20550;-72
2022/07/10 15:24:06;;;;;;;1.73;1.63;;;19.40;99.90;;;;;;4969307;28;20985;-73
2022/07/10 15:26:32;;;;;;;6.03;1.57;;;19.30;99.90;;;;;;4968706;28;20487;-72
2022/07/10 15:28:59;;;;;;;2.67;1.27;;;19.20;99.90;;;;;;4973455;28;20468;-71
2022/07/10 15:31:26;;;;;;;2.70;1.80;;;19.20;99.90;;;;;;4973132;28;20463;-72
2022/07/10 15:33:52;;;;;;;2.63;1.70;;;19.10;99.90;;;;;;4968028;28;20584;-72
2022/07/10 15:36:21;;;;;;;3.07;1.30;;;19.30;99.90;;;;;;4973387;28;20828;-73
2022/07/10 15:38:48;;;;;;;5.60;1.50;;;19.40;99.90;;;;;;4964617;28;20468;-72
2022/07/10 15:41:16;;;;;;;3.87;1.40;;;19.50;99.90;;;;;;4973848;28;20467;-72
2022/07/10 15:43:45;;;;;;;2.03;1.83;;;19.70;99.90;;;;;;4972771;28;20480;-74
2022/07/10 15:46:13;;;;;;;5.30;1.27;;;20.00;99.90;;;;;;4963128;28;20524;-72
2022/07/10 15:48:40;;;;;;;1.70;0.90;;;20.00;99.90;;;;;;4964982;28;21082;-71
2022/07/10 15:51:07;;;;;;;4.13;0.90;;;20.00;99.90;;;;;;4965525;28;20471;-72
2022/07/10 15:53:33;;;;;;;1.70;1.50;;;20.10;99.90;;;;;;4967230;28;20518;-71
2022/07/10 15:56:00;;;;;;;1.30;1.00;;;20.20;99.90;;;;;;4964318;28;20465;-72
2022/07/10 15:58:28;;;;;;;2.30;1.07;;;20.10;99.90;;;;;;4956807;28;20473;-71
2022/07/10 16:00:55;;;;;;;2.10;1.03;;;20.10;99.90;;;;;;4960890;28;20522;-71
2022/07/10 16:03:22;;;;;;;2.10;1.00;;;20.10;99.90;;;;;;4968696;28;20471;-72
2022/07/10 16:05:48;;;;;;;2.00;1.20;;;20.10;99.90;;;;;;4971591;28;20476;-72
2022/07/10 16:08:17;;;;;;;1.50;1.40;;;20.10;99.90;;;;;;4964079;28;20491;-71
2022/07/10 16:10:44;;;;;;;2.60;1.80;;;20.10;99.90;;;;;;4966891;28;20477;-71
2022/07/10 16:13:11;;;;;;;3.20;1.30;;;20.20;99.90;;;;;;4961067;28;20499;-71
2022/07/10 16:15:40;;;;;;;4.87;1.40;;;20.20;99.90;;;;;;4972594;28;20471;-72
2022/07/10 16:18:08;;;;;;;2.53;1.30;;;20.00;99.90;;;;;;4961544;28;20464;-69
2022/07/10 16:20:35;;;;;;;3.50;1.40;;;19.70;99.90;;;;;;4973322;28;20460;-71
2022/07/10 16:23:02;;;;;;;1.97;1.50;;;19.60;99.90;;;;;;4963130;28;20535;-72
2022/07/10 16:28:19;;;;;;;1.77;1.60;;;19.40;99.90;;;;;;4947331;28;20494;-71
2022/07/10 16:30:47;;;;;;;3.10;1.67;;;19.30;99.90;;;;;;4959358;28;20500;-71
2022/07/10 16:33:15;;;;;;;7.23;2.30;;;19.20;99.90;;;;;;4960586;28;20469;-71
2022/07/10 16:35:41;;;;;;;3.13;1.20;;;19.10;99.90;;;;;;4962633;28;20467;-71
2022/07/10 16:38:08;;;;;;;4.17;1.40;;;18.90;99.90;;;;;;4953810;28;20464;-72
2022/07/10 16:40:35;;;;;;;1.90;1.60;;;18.90;99.90;;;;;;4965024;28;20464;-71
2022/07/10 16:43:02;;;;;;;3.60;1.47;;;18.80;99.90;;;;;;4971900;28;20471;-71
2022/07/10 16:45:29;;;;;;;1.70;1.30;;;18.70;99.90;;;;;;4954913;28;20468;-71
2022/07/10 16:47:57;;;;;;;3.57;1.20;;;18.80;99.90;;;;;;4968945;28;20491;-72
2022/07/10 16:50:24;;;;;;;2.53;1.30;;;18.80;99.90;;;;;;4970251;28;20473;-70
2022/07/10 16:52:51;;;;;;;1.43;1.33;;;18.70;99.90;;;;;;4963513;28;20472;-71
2022/07/10 16:55:17;;;;;;;3.60;1.80;;;18.70;99.90;;;;;;4959555;28;20583;-71
2022/07/10 16:57:44;;;;;;;2.43;1.20;;;18.90;99.90;;;;;;4963774;28;20463;-71
2022/07/10 17:00:12;;;;;;;1.87;1.50;;;19.00;99.90;;;;;;4966033;28;20472;-72
2022/07/10 17:02:40;;;;;;;5.10;1.40;;;19.00;99.90;;;;;;4971495;28;20471;-72
2022/07/10 17:05:09;;;;;;;2.30;1.27;;;19.10;99.90;;;;;;4956691;28;20499;-71